Time;durP1;ratioP1;P1;durP2;ratioP2;P2;SDS_P1;SDS_P2;PMS_P1;PMS_P2;Temp;Humidity;BMP_temperature;BMP_pressure;BME280_temperature;BME280_humidity;BME280_pressure;Samples;Min_cycle;Max_cycle;Signal;HPM_P1;HPM_P2
2022/11/28 00:01:24;;;;;;;6.33;4.60;;;10.10;99.90;;;;;;5052196;28;20912;-75
2022/11/28 00:03:50;;;;;;;5.60;4.50;;;10.10;99.90;;;;;;5052333;28;20488;-74
2022/11/28 00:06:16;;;;;;;5.97;4.63;;;10.00;99.90;;;;;;5052100;28;20936;-74
2022/11/28 00:08:41;;;;;;;6.17;4.40;;;10.20;99.90;;;;;;5052198;28;20233;-74
2022/11/28 00:11:09;;;;;;;6.00;4.50;;;10.20;99.90;;;;;;5052151;28;20175;-74
2022/11/28 00:13:35;;;;;;;5.07;4.00;;;10.10;99.90;;;;;;5051962;28;20182;-72
2022/11/28 00:16:03;;;;;;;8.50;3.50;;;10.00;99.90;;;;;;5051943;28;20421;-72
2022/11/28 00:18:29;;;;;;;5.60;4.43;;;10.10;99.90;;;;;;5051836;28;20472;-71
2022/11/28 00:21:03;;;;;;;4.10;3.50;;;10.00;99.90;;;;;;5051594;28;20521;-71
2022/11/28 00:23:29;;;;;;;4.53;4.10;;;9.90;99.90;;;;;;5052729;28;20649;-71
2022/11/28 00:26:04;;;;;;;6.70;4.50;;;10.00;99.90;;;;;;5052828;28;20943;-71
2022/11/28 00:28:30;;;;;;;7.03;5.10;;;9.90;99.90;;;;;;5052806;28;20479;-72
2022/11/28 00:30:55;;;;;;;5.33;4.40;;;9.80;99.90;;;;;;5052868;28;20434;-71
2022/11/28 00:33:21;;;;;;;6.73;4.83;;;9.90;99.90;;;;;;5052832;28;20516;-72
2022/11/28 00:35:46;;;;;;;5.67;4.07;;;10.00;99.90;;;;;;5052787;28;20185;-73
2022/11/28 00:38:12;;;;;;;5.87;3.70;;;10.00;99.90;;;;;;5052838;28;20182;-74
2022/11/28 00:40:37;;;;;;;7.33;4.27;;;9.90;99.90;;;;;;5052873;28;20226;-72
2022/11/28 00:43:03;;;;;;;6.23;4.43;;;9.90;99.90;;;;;;5052723;28;20545;-73
2022/11/28 00:45:29;;;;;;;8.23;5.00;;;9.90;99.90;;;;;;5052676;28;20657;-71
2022/11/28 00:47:54;;;;;;;5.87;4.17;;;9.80;99.90;;;;;;5052871;28;20183;-70
2022/11/28 00:50:20;;;;;;;4.70;4.27;;;9.70;99.90;;;;;;5052134;28;20205;-74
2022/11/28 00:52:45;;;;;;;5.83;4.83;;;9.70;99.90;;;;;;5051891;28;20254;-74
2022/11/28 00:55:11;;;;;;;8.57;4.73;;;9.70;99.90;;;;;;5051750;28;20569;-73
2022/11/28 00:57:36;;;;;;;5.87;4.73;;;9.70;99.90;;;;;;5051711;28;20179;-74
2022/11/28 01:00:04;;;;;;;7.47;4.90;;;9.70;99.90;;;;;;5051812;28;20492;-74
2022/11/28 01:02:30;;;;;;;11.47;4.73;;;9.80;99.90;;;;;;5051581;28;20186;-73
2022/11/28 01:04:55;;;;;;;7.47;4.43;;;9.70;99.90;;;;;;5051760;28;20563;-71
2022/11/28 01:07:21;;;;;;;5.70;3.90;;;9.60;99.90;;;;;;5051673;28;20182;-71
2022/11/28 01:09:46;;;;;;;5.33;4.83;;;9.60;99.90;;;;;;5051619;28;20225;-71
2022/11/28 01:12:12;;;;;;;7.33;4.60;;;9.60;99.90;;;;;;5051547;28;20183;-71
2022/11/28 01:14:37;;;;;;;5.77;4.47;;;9.50;99.90;;;;;;5051644;28;20171;-71
2022/11/28 01:17:03;;;;;;;7.10;4.37;;;9.60;99.90;;;;;;5051570;28;20171;-71
2022/11/28 01:19:29;;;;;;;8.63;4.93;;;9.40;99.90;;;;;;5051332;28;20214;-70
2022/11/28 01:21:54;;;;;;;5.87;4.67;;;9.40;99.90;;;;;;5051710;28;20183;-70
2022/11/28 01:24:20;;;;;;;5.73;3.97;;;9.40;99.90;;;;;;5051524;28;20171;-70
2022/11/28 01:26:45;;;;;;;6.10;4.50;;;9.40;99.90;;;;;;5051560;28;20187;-70
2022/11/28 01:29:11;;;;;;;8.10;4.23;;;9.40;99.90;;;;;;5055097;28;20171;-70
2022/11/28 01:31:37;;;;;;;6.63;4.60;;;9.30;99.90;;;;;;5054984;28;20213;-70
2022/11/28 05:32:14;;;;;;;7.60;4.90;;;9.20;99.90;;;;;;5146862;23;20282;-72
2022/11/28 05:34:39;;;;;;;6.33;4.83;;;9.20;99.90;;;;;;4957736;29;20429;-71
2022/11/28 05:37:05;;;;;;;5.40;4.87;;;9.20;99.90;;;;;;4956669;29;20241;-72
2022/11/28 05:39:31;;;;;;;6.10;4.70;;;9.20;99.90;;;;;;4956586;29;20182;-72
2022/11/28 05:41:57;;;;;;;7.43;5.07;;;9.20;99.90;;;;;;4956576;28;20186;-71
2022/11/28 05:44:23;;;;;;;7.03;5.00;;;9.20;99.90;;;;;;4956415;29;20480;-72
2022/11/28 05:46:48;;;;;;;5.07;4.57;;;9.20;99.90;;;;;;4955788;29;20450;-74
2022/11/28 05:49:14;;;;;;;6.03;4.13;;;9.20;99.90;;;;;;4956227;29;20178;-71
2022/11/28 05:51:39;;;;;;;12.17;4.80;;;9.30;99.90;;;;;;4956264;29;20696;-72
2022/11/28 05:54:06;;;;;;;6.70;4.97;;;9.30;99.90;;;;;;4956337;29;20746;-73
2022/11/28 06:12:03;;;;;;;5.90;5.10;;;9.60;99.90;;;;;;5269555;23;20497;-76
2022/11/28 06:14:29;;;;;;;6.63;4.07;;;9.60;99.90;;;;;;4936559;29;20770;-72
2022/11/28 06:16:54;;;;;;;6.97;4.53;;;9.60;99.90;;;;;;4945949;29;20266;-71
2022/11/28 06:19:20;;;;;;;5.77;4.70;;;9.60;99.90;;;;;;4946635;29;20594;-71
2022/11/28 06:21:47;;;;;;;6.33;4.60;;;9.60;99.90;;;;;;4954347;29;20221;-70
2022/11/28 06:24:13;;;;;;;5.33;4.63;;;9.70;99.90;;;;;;4953854;29;20178;-70
2022/11/28 06:26:38;;;;;;;9.30;5.13;;;9.70;99.90;;;;;;4955793;29;20444;-70
2022/11/28 06:29:04;;;;;;;5.43;3.93;;;9.70;99.90;;;;;;4955702;29;20174;-70
2022/11/28 06:31:30;;;;;;;4.57;3.80;;;9.70;99.90;;;;;;4955507;29;20179;-70
2022/11/28 06:33:57;;;;;;;6.40;4.30;;;9.70;99.90;;;;;;4939138;29;20183;-70
2022/11/28 06:36:23;;;;;;;8.30;5.40;;;9.70;99.90;;;;;;4936183;29;20182;-70
2022/11/28 06:38:49;;;;;;;5.63;5.13;;;9.70;99.90;;;;;;4936498;29;20438;-70
2022/11/28 06:41:18;;;;;;;5.00;4.37;;;9.70;99.90;;;;;;4936261;29;20977;-70
2022/11/28 06:43:43;;;;;;;6.63;5.07;;;9.80;99.90;;;;;;4936482;29;20179;-69
2022/11/28 06:46:13;;;;;;;5.27;4.77;;;9.80;99.90;;;;;;4936213;29;20487;-74
2022/11/28 06:48:39;;;;;;;5.57;4.70;;;9.90;99.90;;;;;;4936476;29;20189;-72
2022/11/28 06:51:05;;;;;;;17.00;13.67;;;9.90;99.90;;;;;;4945141;29;20437;-71
2022/11/28 06:53:32;;;;;;;11.50;8.30;;;9.90;99.90;;;;;;4945604;29;20179;-70
2022/11/28 06:56:03;;;;;;;11.57;7.93;;;9.90;99.90;;;;;;4943446;29;20520;-70
2022/11/28 06:58:29;;;;;;;8.30;6.20;;;9.90;99.90;;;;;;4945004;29;20431;-70
2022/11/28 07:00:54;;;;;;;7.10;5.03;;;9.90;99.90;;;;;;4944796;29;21003;-71
2022/11/28 07:03:20;;;;;;;5.57;4.90;;;9.90;99.90;;;;;;4946282;29;20175;-71
2022/11/28 07:05:45;;;;;;;5.97;5.17;;;9.80;99.90;;;;;;4944638;29;20189;-71
2022/11/28 07:08:11;;;;;;;9.53;6.17;;;9.80;99.90;;;;;;4945224;29;20257;-72
2022/11/28 07:10:36;;;;;;;7.40;5.80;;;9.80;99.90;;;;;;4945695;29;20203;-71
2022/11/28 07:13:02;;;;;;;8.03;6.40;;;9.80;99.90;;;;;;4953547;29;20233;-71
2022/11/28 07:15:27;;;;;;;7.37;5.33;;;9.80;99.90;;;;;;4954261;29;20431;-67
2022/11/28 07:17:53;;;;;;;9.20;5.33;;;9.80;99.90;;;;;;4953833;29;20430;-67
2022/11/28 07:20:19;;;;;;;6.93;5.00;;;9.90;99.90;;;;;;4955136;29;20361;-67
2022/11/28 07:22:47;;;;;;;9.07;5.53;;;9.90;99.90;;;;;;4955317;29;20509;-67
2022/11/28 07:25:13;;;;;;;7.80;6.00;;;9.90;99.90;;;;;;4954399;28;20455;-67
2022/11/28 07:27:40;;;;;;;6.27;5.60;;;9.80;99.90;;;;;;4955547;29;20434;-68
2022/11/28 07:30:06;;;;;;;9.83;5.50;;;9.80;99.90;;;;;;4949658;29;20450;-67
2022/11/28 07:32:32;;;;;;;9.33;5.20;;;9.80;99.90;;;;;;4946218;29;20490;-67
2022/11/28 07:34:57;;;;;;;7.80;5.20;;;9.80;99.90;;;;;;4945457;29;20435;-67
2022/11/28 07:37:23;;;;;;;6.63;5.83;;;9.90;99.90;;;;;;4944482;29;20531;-67
2022/11/28 07:39:48;;;;;;;6.40;5.47;;;9.80;99.90;;;;;;4938696;29;20202;-67
2022/11/28 07:42:14;;;;;;;6.60;5.50;;;9.70;99.90;;;;;;4936010;29;20238;-67
2022/11/28 07:44:39;;;;;;;11.03;6.37;;;9.70;99.90;;;;;;4936307;29;20167;-67
2022/11/28 07:47:05;;;;;;;7.93;5.77;;;9.70;99.90;;;;;;4947520;29;20237;-67
2022/11/28 07:49:31;;;;;;;12.43;6.70;;;9.70;99.90;;;;;;4955223;29;20178;-70
2022/11/28 07:51:57;;;;;;;8.57;6.87;;;9.70;99.90;;;;;;4955326;29;20179;-70
2022/11/28 07:54:23;;;;;;;6.93;6.20;;;9.70;99.90;;;;;;4954943;29;20433;-70
2022/11/28 07:56:48;;;;;;;7.43;5.50;;;9.60;99.90;;;;;;4955293;29;20929;-67
2022/11/28 07:59:15;;;;;;;7.70;5.90;;;9.60;99.90;;;;;;4955164;29;20205;-68
2022/11/28 08:01:40;;;;;;;8.20;6.13;;;9.60;99.90;;;;;;4955126;28;20212;-68
2022/11/28 08:04:07;;;;;;;9.90;6.40;;;9.50;99.90;;;;;;4954895;29;20777;-68
2022/11/28 08:06:38;;;;;;;8.33;5.60;;;9.50;99.90;;;;;;4955056;29;20643;-68
2022/11/28 08:09:05;;;;;;;7.87;6.37;;;9.60;99.90;;;;;;4955071;29;20426;-67
2022/11/28 08:11:31;;;;;;;8.33;5.93;;;9.60;99.90;;;;;;4954676;29;20469;-68
2022/11/28 08:13:57;;;;;;;8.47;6.70;;;9.60;99.90;;;;;;4955103;29;20525;-68
2022/11/28 08:16:24;;;;;;;9.03;6.60;;;9.60;99.90;;;;;;4954872;29;20606;-68
2022/11/28 08:18:50;;;;;;;9.00;6.80;;;9.60;99.90;;;;;;4954918;29;20182;-68
2022/11/28 08:21:19;;;;;;;10.00;7.03;;;9.60;99.90;;;;;;4954627;29;20484;-68
2022/11/28 08:23:45;;;;;;;9.03;6.20;;;9.60;99.90;;;;;;4954730;28;20454;-68
2022/11/28 08:26:14;;;;;;;11.10;8.23;;;9.60;99.90;;;;;;4954779;29;20445;-68
2022/11/28 08:28:40;;;;;;;12.90;7.47;;;9.70;99.90;;;;;;4954750;29;20202;-68
2022/11/28 08:31:15;;;;;;;8.73;6.27;;;9.70;99.90;;;;;;4954503;29;20441;-68
2022/11/28 08:33:42;;;;;;;13.10;7.90;;;9.60;99.90;;;;;;4954869;29;20453;-68
2022/11/28 08:36:10;;;;;;;10.30;6.07;;;9.60;99.90;;;;;;4955479;28;20437;-68
2022/11/28 08:38:36;;;;;;;7.87;7.00;;;9.60;99.90;;;;;;4958708;29;20429;-68
2022/11/28 08:41:07;;;;;;;9.53;6.50;;;9.60;99.90;;;;;;4958552;29;20481;-68
2022/11/28 08:43:33;;;;;;;8.07;5.73;;;9.50;99.90;;;;;;4958641;28;20528;-68
2022/11/28 08:45:59;;;;;;;10.63;6.50;;;9.60;99.90;;;;;;4958845;28;20438;-68
2022/11/28 08:48:25;;;;;;;9.63;6.03;;;9.60;99.90;;;;;;4958538;29;20452;-68
2022/11/28 08:50:50;;;;;;;10.07;6.20;;;9.50;99.90;;;;;;4958553;29;20465;-68
2022/11/28 08:53:16;;;;;;;8.20;6.23;;;9.60;99.90;;;;;;4958390;29;20178;-68
2022/11/28 08:55:45;;;;;;;7.97;6.07;;;9.60;99.90;;;;;;4958561;29;20266;-68
2022/11/28 08:58:11;;;;;;;9.10;6.43;;;9.60;99.90;;;;;;4958251;29;20185;-68
2022/11/28 09:00:37;;;;;;;9.43;6.17;;;9.70;99.90;;;;;;4958432;29;20481;-68
2022/11/28 09:03:03;;;;;;;6.33;5.20;;;9.60;99.90;;;;;;4958353;28;20182;-68
2022/11/28 09:05:30;;;;;;;7.40;5.30;;;9.60;99.90;;;;;;4958250;29;20788;-68
2022/11/28 09:07:56;;;;;;;6.80;5.60;;;9.50;99.90;;;;;;4958225;29;20616;-68
2022/11/28 09:10:23;;;;;;;7.43;5.30;;;9.50;99.90;;;;;;4957938;29;20913;-68
2022/11/28 09:12:49;;;;;;;14.90;6.60;;;9.50;99.90;;;;;;4957754;29;20187;-68
2022/11/28 09:15:14;;;;;;;8.67;6.03;;;9.50;99.90;;;;;;4957493;29;20438;-68
2022/11/28 09:17:40;;;;;;;8.10;4.77;;;9.50;99.90;;;;;;4958077;29;20229;-67
2022/11/28 09:20:06;;;;;;;8.13;5.93;;;9.50;99.90;;;;;;4957844;29;20210;-67
2022/11/28 09:22:32;;;;;;;5.83;5.23;;;9.50;99.90;;;;;;4957850;29;20224;-67
2022/11/28 09:24:58;;;;;;;5.60;5.03;;;9.50;99.90;;;;;;4957889;29;20454;-67
2022/11/28 09:27:24;;;;;;;9.00;6.50;;;9.60;99.90;;;;;;4957729;29;20978;-67
2022/11/28 09:29:49;;;;;;;7.00;5.57;;;9.60;99.90;;;;;;4957579;29;20189;-67
2022/11/28 09:32:15;;;;;;;8.60;6.00;;;9.70;99.90;;;;;;4957624;29;20275;-67
2022/11/28 09:34:40;;;;;;;8.90;5.70;;;9.60;99.90;;;;;;4957694;29;20202;-67
2022/11/28 09:37:06;;;;;;;8.20;6.17;;;9.60;99.90;;;;;;4957509;28;20554;-67
2022/11/28 09:39:32;;;;;;;12.97;6.40;;;9.60;99.90;;;;;;4957583;29;20209;-67
2022/11/28 09:42:11;;;;;;;7.93;7.10;;;9.70;99.90;;;;;;4957738;29;20193;-67
2022/11/28 09:44:43;;;;;;;8.00;6.20;;;9.70;99.90;;;;;;4957672;28;20178;-68
2022/11/28 09:47:36;;;;;;;8.60;6.20;;;9.60;99.90;;;;;;4957555;29;20445;-67
2022/11/28 09:50:19;;;;;;;6.70;5.97;;;9.70;99.90;;;;;;4956615;29;20445;-67
2022/11/28 09:53:07;;;;;;;8.73;5.87;;;9.70;99.90;;;;;;4957225;29;20433;-68
2022/11/28 09:55:46;;;;;;;5.97;5.30;;;9.70;99.90;;;;;;4957252;28;20433;-67
2022/11/28 09:58:18;;;;;;;6.33;5.73;;;9.80;99.90;;;;;;4956944;29;20422;-71
2022/11/28 10:00:50;;;;;;;10.03;6.13;;;9.80;99.90;;;;;;4957330;29;21015;-68
2022/11/28 10:03:16;;;;;;;7.27;5.77;;;9.80;99.90;;;;;;4957245;29;20431;-68
2022/11/28 10:06:06;;;;;;;9.00;6.43;;;9.80;99.90;;;;;;4957302;29;20426;-68
2022/11/28 10:08:46;;;;;;;10.63;6.93;;;9.80;99.90;;;;;;4956298;29;20186;-68
2022/11/28 10:11:33;;;;;;;8.07;6.40;;;9.80;99.90;;;;;;4956558;29;20771;-68
2022/11/28 10:14:33;;;;;;;7.40;5.70;;;9.90;99.90;;;;;;4957002;29;20925;-68
2022/11/28 10:17:19;;;;;;;7.60;6.50;;;9.80;99.90;;;;;;4956801;29;20477;-68
2022/11/28 10:20:09;;;;;;;6.60;5.47;;;9.90;99.90;;;;;;4957038;29;20428;-68
2022/11/28 10:22:38;;;;;;;6.97;5.70;;;9.90;99.90;;;;;;4956904;29;20724;-67
2022/11/28 10:25:23;;;;;;;9.47;6.70;;;9.90;99.90;;;;;;4956753;29;20428;-67
2022/11/28 10:27:49;;;;;;;7.47;5.30;;;9.90;99.90;;;;;;4956970;29;20430;-68
2022/11/28 10:30:27;;;;;;;9.33;8.03;;;9.90;99.90;;;;;;4956760;29;20425;-68
2022/11/28 10:33:08;;;;;;;10.53;6.20;;;9.90;99.90;;;;;;4956823;28;20430;-68
2022/11/28 10:35:52;;;;;;;14.20;6.63;;;9.80;99.90;;;;;;4956453;28;20821;-68
2022/11/28 10:38:24;;;;;;;11.20;6.10;;;9.90;99.90;;;;;;4956379;28;20430;-67
2022/11/28 10:41:15;;;;;;;10.70;6.40;;;9.90;99.90;;;;;;4956270;28;20536;-67
2022/11/28 10:43:46;;;;;;;9.37;6.93;;;9.90;99.90;;;;;;4956604;28;20450;-68
2022/11/28 10:46:26;;;;;;;7.73;6.70;;;9.90;99.90;;;;;;4956575;29;20425;-68
2022/11/28 10:49:13;;;;;;;9.50;6.80;;;9.90;99.90;;;;;;4956442;28;20790;-68
2022/11/28 10:51:53;;;;;;;11.53;7.03;;;9.90;99.90;;;;;;4956516;28;20869;-67
2022/11/28 10:54:37;;;;;;;6.43;5.10;;;9.90;99.90;;;;;;4956258;29;20561;-69
2022/11/28 10:57:16;;;;;;;9.70;6.97;;;9.90;99.90;;;;;;4955985;29;20422;-69
2022/11/28 10:59:58;;;;;;;9.23;6.80;;;10.10;99.90;;;;;;4955204;28;20437;-72
2022/11/28 11:02:46;;;;;;;12.70;7.00;;;10.30;99.90;;;;;;4956172;29;20438;-71
2022/11/28 11:05:34;;;;;;;7.23;6.03;;;10.40;99.90;;;;;;4955998;29;20826;-75
2022/11/28 11:08:25;;;;;;;8.80;6.03;;;10.50;99.90;;;;;;4955290;29;20430;-76
2022/11/28 11:10:58;;;;;;;11.27;6.30;;;10.60;99.90;;;;;;4955424;29;20461;-76
2022/11/28 11:13:30;;;;;;;11.37;7.23;;;10.70;99.90;;;;;;4955536;29;20437;-69
2022/11/28 11:15:58;;;;;;;17.27;9.03;;;10.70;99.90;;;;;;4955794;29;20426;-69
2022/11/28 11:18:30;;;;;;;13.00;9.43;;;10.80;99.90;;;;;;4955771;29;20458;-68
2022/11/28 11:21:14;;;;;;;14.73;10.30;;;10.90;99.90;;;;;;4955564;29;20474;-68
2022/11/28 11:23:40;;;;;;;13.17;10.50;;;10.80;99.90;;;;;;4955942;28;20426;-68
2022/11/28 11:26:09;;;;;;;10.07;7.93;;;10.70;99.90;;;;;;4955540;29;20509;-68
2022/11/28 11:28:41;;;;;;;9.27;6.30;;;10.60;99.90;;;;;;4955575;29;20174;-68
2022/11/28 11:31:17;;;;;;;8.00;6.23;;;10.50;99.90;;;;;;4955500;28;20430;-67
2022/11/28 11:33:43;;;;;;;12.17;6.90;;;10.50;99.90;;;;;;4955852;29;20508;-67
2022/11/28 11:36:30;;;;;;;12.10;7.90;;;10.40;99.90;;;;;;4955612;29;20521;-67
2022/11/28 11:39:24;;;;;;;9.07;7.03;;;10.40;99.90;;;;;;4955742;28;20178;-68
2022/11/28 11:42:11;;;;;;;10.13;8.30;;;10.30;99.90;;;;;;4954637;28;20576;-67
2022/11/28 11:44:36;;;;;;;9.40;6.27;;;10.30;99.90;;;;;;4955419;28;20430;-68
2022/11/28 11:47:08;;;;;;;13.23;7.30;;;10.20;99.90;;;;;;4954671;29;20489;-68
2022/11/28 11:49:43;;;;;;;8.83;6.87;;;10.20;99.90;;;;;;4955581;28;20174;-67
2022/11/28 11:52:11;;;;;;;12.53;8.03;;;10.10;99.90;;;;;;4955533;28;20885;-67
2022/11/28 11:54:55;;;;;;;11.17;7.10;;;10.00;99.90;;;;;;4955494;28;20782;-68
2022/11/28 11:57:22;;;;;;;12.57;8.13;;;10.00;99.90;;;;;;4955133;28;20469;-67
2022/11/28 12:00:01;;;;;;;12.70;6.93;;;10.00;99.90;;;;;;4954851;28;20426;-67
2022/11/28 12:02:44;;;;;;;9.63;7.23;;;10.00;99.90;;;;;;4954869;28;20445;-67
2022/11/28 12:05:12;;;;;;;13.60;7.83;;;9.90;99.90;;;;;;4955142;29;20434;-67
2022/11/28 12:07:56;;;;;;;10.73;7.33;;;10.00;99.90;;;;;;4954933;28;20509;-67
2022/11/28 12:10:25;;;;;;;8.83;7.60;;;10.00;99.90;;;;;;4955066;28;20442;-67
2022/11/28 12:12:51;;;;;;;8.50;6.70;;;10.10;99.90;;;;;;4954647;28;20511;-68
2022/11/28 12:15:28;;;;;;;13.93;9.20;;;10.00;99.90;;;;;;4954770;28;20461;-67
2022/11/28 12:18:23;;;;;;;11.57;8.23;;;10.00;99.90;;;;;;4955152;29;20430;-67
2022/11/28 12:20:54;;;;;;;11.50;7.70;;;10.00;99.90;;;;;;4933351;29;20650;-67
2022/11/28 12:23:45;;;;;;;8.70;6.93;;;9.90;99.90;;;;;;4953634;28;20541;-68
2022/11/28 12:26:23;;;;;;;12.17;7.90;;;10.00;99.90;;;;;;4954968;28;20449;-68
2022/11/28 12:29:08;;;;;;;9.37;6.93;;;10.00;99.90;;;;;;4955017;29;20465;-68
2022/11/28 12:32:07;;;;;;;9.93;7.43;;;10.10;99.90;;;;;;4954943;28;20445;-67
2022/11/28 12:35:09;;;;;;;13.17;7.63;;;10.10;99.90;;;;;;4954828;28;20449;-67
2022/11/28 12:37:56;;;;;;;9.77;7.30;;;10.10;99.90;;;;;;4954950;28;20984;-67
2022/11/28 12:40:54;;;;;;;12.27;7.33;;;10.10;99.90;;;;;;4954820;29;20989;-67
2022/11/28 12:43:56;;;;;;;8.90;6.03;;;10.10;99.90;;;;;;4924654;29;21020;-68
2022/11/28 12:46:58;;;;;;;14.17;8.47;;;10.10;99.90;;;;;;4954736;28;20429;-67
2022/11/28 12:49:45;;;;;;;17.40;7.20;;;10.10;99.90;;;;;;4954850;28;20480;-67
2022/11/28 12:52:20;;;;;;;9.00;7.47;;;10.10;99.90;;;;;;4954163;28;20433;-67
2022/11/28 12:55:13;;;;;;;8.70;6.67;;;10.20;99.90;;;;;;4954206;29;21041;-68
2022/11/28 12:58:10;;;;;;;10.63;7.07;;;10.10;99.90;;;;;;4954649;28;20428;-67
2022/11/28 13:01:03;;;;;;;13.03;7.40;;;10.20;99.90;;;;;;4954740;28;20556;-67
2022/11/28 13:04:00;;;;;;;8.67;6.63;;;10.10;99.90;;;;;;4954715;28;20514;-67
2022/11/28 13:06:39;;;;;;;9.53;6.63;;;10.00;99.90;;;;;;4954798;29;20784;-67
2022/11/28 13:09:15;;;;;;;9.47;6.80;;;10.00;99.90;;;;;;4954628;28;20457;-67
2022/11/28 13:11:47;;;;;;;7.80;6.50;;;9.90;99.90;;;;;;4954227;29;20517;-67
2022/11/28 13:14:21;;;;;;;9.97;6.33;;;9.90;99.90;;;;;;4954516;29;20855;-67
2022/11/28 13:16:51;;;;;;;8.67;6.27;;;9.80;99.90;;;;;;4954697;29;20418;-67
2022/11/28 13:19:36;;;;;;;8.20;6.83;;;9.80;99.90;;;;;;4954491;28;20476;-67
2022/11/28 13:22:14;;;;;;;10.67;6.37;;;9.80;99.90;;;;;;4954270;28;20476;-67
2022/11/28 13:25:02;;;;;;;9.20;7.30;;;9.80;99.90;;;;;;4957487;28;20482;-67
2022/11/28 13:27:59;;;;;;;8.57;6.87;;;9.90;99.90;;;;;;4957898;28;20521;-67
2022/11/28 13:30:27;;;;;;;10.20;6.90;;;9.80;99.90;;;;;;4937344;29;20441;-67
2022/11/28 13:33:27;;;;;;;8.60;6.03;;;9.80;99.90;;;;;;4957098;28;20426;-67
2022/11/28 13:35:53;;;;;;;6.20;5.50;;;9.90;99.90;;;;;;4958033;28;20421;-67
2022/11/28 13:38:38;;;;;;;8.27;7.10;;;9.80;99.90;;;;;;4957326;28;20429;-67
2022/11/28 13:41:33;;;;;;;11.10;7.33;;;9.80;99.90;;;;;;4957528;28;20480;-67
2022/11/28 13:44:01;;;;;;;9.80;7.47;;;9.80;99.90;;;;;;4936126;29;20438;-68
2022/11/28 13:46:28;;;;;;;16.83;9.60;;;9.80;99.90;;;;;;4957547;29;20430;-68
2022/11/28 13:49:00;;;;;;;9.23;7.17;;;9.80;99.90;;;;;;4957357;28;20426;-68
2022/11/28 13:51:29;;;;;;;12.03;8.97;;;9.80;99.90;;;;;;4956890;28;20435;-67
2022/11/28 13:54:17;;;;;;;9.87;7.40;;;9.90;99.90;;;;;;4957388;28;20434;-67
2022/11/28 13:57:04;;;;;;;8.60;6.90;;;9.90;99.90;;;;;;4957187;28;20438;-67
2022/11/28 13:59:31;;;;;;;9.40;6.23;;;9.80;99.90;;;;;;4957514;28;20525;-68
2022/11/28 14:02:00;;;;;;;13.03;9.50;;;9.80;99.90;;;;;;4957323;28;20473;-67
2022/11/28 14:04:28;;;;;;;9.73;7.40;;;9.80;99.90;;;;;;4957163;28;20460;-68
2022/11/28 14:06:59;;;;;;;7.40;6.13;;;9.80;99.90;;;;;;4957184;28;20438;-68
2022/11/28 14:10:09;;;;;;;12.10;6.97;;;9.80;99.90;;;;;;4957127;29;20784;-68
2022/11/28 14:12:52;;;;;;;7.40;6.10;;;9.80;99.90;;;;;;4944060;28;21036;-67
2022/11/28 14:15:22;;;;;;;7.83;6.80;;;9.80;99.90;;;;;;4956965;28;20857;-68
2022/11/28 14:17:58;;;;;;;10.30;6.40;;;9.80;99.90;;;;;;4957169;29;20422;-67
2022/11/28 14:20:38;;;;;;;15.23;6.63;;;9.80;99.90;;;;;;4956406;28;20468;-72
2022/11/28 14:23:22;;;;;;;14.50;8.50;;;9.90;99.90;;;;;;4956971;28;20464;-67
2022/11/28 14:25:51;;;;;;;9.10;7.37;;;9.90;99.90;;;;;;4956982;29;20489;-68
2022/11/28 14:28:35;;;;;;;11.57;7.53;;;9.90;99.90;;;;;;4956884;28;20786;-68
2022/11/28 14:31:26;;;;;;;13.20;9.00;;;9.80;99.90;;;;;;4956953;28;20437;-68
2022/11/28 14:34:05;;;;;;;14.47;8.80;;;9.90;99.90;;;;;;4955981;28;20411;-68
2022/11/28 14:36:40;;;;;;;6.77;6.07;;;9.80;99.90;;;;;;4957057;28;20925;-68
2022/11/28 14:39:15;;;;;;;7.17;5.40;;;9.90;99.90;;;;;;4956745;28;20448;-68
2022/11/28 14:42:03;;;;;;;7.10;6.40;;;9.90;99.90;;;;;;4956414;29;20877;-68
2022/11/28 14:44:57;;;;;;;7.40;6.70;;;9.90;99.90;;;;;;4956210;28;20452;-67
2022/11/28 14:47:22;;;;;;;9.53;7.60;;;9.90;99.90;;;;;;4956646;28;20465;-68
2022/11/28 14:50:08;;;;;;;8.80;6.73;;;9.90;99.90;;;;;;4956339;29;20457;-67
2022/11/28 14:52:42;;;;;;;8.13;6.33;;;10.00;99.90;;;;;;4956206;29;20174;-77
2022/11/28 14:55:10;;;;;;;8.20;6.53;;;9.90;99.90;;;;;;4956160;28;20429;-74
2022/11/28 14:57:58;;;;;;;8.63;6.80;;;9.90;99.90;;;;;;4956391;29;20511;-68
2022/11/28 15:00:31;;;;;;;10.77;7.17;;;9.90;99.90;;;;;;4956171;28;20469;-68
2022/11/28 15:03:06;;;;;;;8.70;6.67;;;9.90;99.90;;;;;;4956373;28;20418;-68
2022/11/28 15:05:56;;;;;;;7.63;6.30;;;9.90;99.90;;;;;;4956198;29;20417;-67
2022/11/28 15:08:44;;;;;;;8.70;6.20;;;9.90;99.90;;;;;;4956094;28;20834;-68
2022/11/28 15:11:18;;;;;;;7.07;5.80;;;9.90;99.90;;;;;;4955286;28;20465;-67
2022/11/28 15:14:00;;;;;;;8.90;6.93;;;9.90;99.90;;;;;;4956141;29;20856;-68
2022/11/28 15:16:30;;;;;;;9.20;7.27;;;9.80;99.90;;;;;;4956112;28;20419;-68
2022/11/28 15:19:02;;;;;;;9.00;6.03;;;9.80;99.90;;;;;;4956050;28;20430;-68
2022/11/28 15:21:28;;;;;;;8.43;6.30;;;9.90;99.90;;;;;;4955199;28;20469;-67
2022/11/28 15:23:54;;;;;;;6.87;5.90;;;9.90;99.90;;;;;;4954742;29;20780;-67
2022/11/28 15:26:28;;;;;;;16.27;7.20;;;9.90;99.90;;;;;;4955521;28;20205;-68
2022/11/28 15:29:16;;;;;;;8.40;7.17;;;9.90;99.90;;;;;;4955736;28;20473;-68
2022/11/28 15:31:42;;;;;;;6.90;6.20;;;9.90;99.90;;;;;;4955560;28;20952;-70
2022/11/28 15:34:09;;;;;;;7.00;6.30;;;9.90;99.90;;;;;;4955450;28;20434;-68
2022/11/28 15:36:36;;;;;;;6.73;6.00;;;9.80;99.90;;;;;;4955696;28;20410;-68
2022/11/28 15:39:02;;;;;;;7.23;6.37;;;9.90;99.90;;;;;;4955389;28;20441;-68
2022/11/28 15:41:28;;;;;;;10.00;6.90;;;9.90;99.90;;;;;;4955505;28;20485;-68
2022/11/28 15:43:54;;;;;;;9.60;8.20;;;9.90;99.90;;;;;;4955483;29;20417;-68
2022/11/28 15:46:32;;;;;;;16.33;8.73;;;9.90;99.90;;;;;;4955017;28;20332;-69
2022/11/28 15:48:57;;;;;;;12.30;9.37;;;9.90;99.90;;;;;;4955569;28;20921;-69
2022/11/28 15:51:34;;;;;;;10.77;8.70;;;9.90;99.90;;;;;;4955398;29;20434;-69
2022/11/28 15:54:03;;;;;;;10.57;7.70;;;9.90;99.90;;;;;;4955405;28;20185;-70
2022/11/28 15:56:29;;;;;;;11.47;8.60;;;9.90;99.90;;;;;;4955225;28;20533;-76
2022/11/28 15:58:54;;;;;;;8.17;5.63;;;9.90;99.90;;;;;;4954967;29;20517;-70
2022/11/28 16:01:25;;;;;;;9.67;6.83;;;9.90;99.90;;;;;;4954985;28;20233;-68
2022/11/28 16:03:54;;;;;;;7.60;6.90;;;9.80;99.90;;;;;;4952199;28;20180;-69
2022/11/28 16:06:22;;;;;;;9.53;6.40;;;9.80;99.90;;;;;;4952638;28;20437;-69
2022/11/28 16:08:55;;;;;;;7.80;6.80;;;9.80;99.90;;;;;;4948359;28;20522;-68
2022/11/28 16:11:23;;;;;;;8.33;6.60;;;9.80;99.90;;;;;;4948804;28;21048;-68
2022/11/28 16:13:50;;;;;;;8.47;7.57;;;9.80;99.90;;;;;;4950068;28;20434;-68
2022/11/28 16:16:23;;;;;;;12.20;7.83;;;9.80;99.90;;;;;;4952810;28;20433;-71
2022/11/28 16:18:58;;;;;;;8.50;6.57;;;9.90;99.90;;;;;;4948169;28;20442;-68
2022/11/28 16:21:28;;;;;;;9.23;6.43;;;9.90;99.90;;;;;;4947644;28;20484;-68
2022/11/28 16:23:54;;;;;;;8.27;7.00;;;9.90;99.90;;;;;;4949976;28;21007;-68
2022/11/28 16:26:30;;;;;;;9.63;7.20;;;9.90;99.90;;;;;;4952455;28;20500;-68
2022/11/28 16:29:08;;;;;;;8.53;6.70;;;9.90;99.90;;;;;;4949246;28;20274;-68
2022/11/28 16:31:34;;;;;;;7.75;6.00;;;9.90;99.90;;;;;;4948860;28;20825;-70
2022/11/28 16:34:00;;;;;;;10.27;7.40;;;9.90;99.90;;;;;;4951499;28;20742;-70
2022/11/28 16:36:29;;;;;;;7.20;6.10;;;9.90;99.90;;;;;;4951596;28;20265;-70
2022/11/28 16:39:10;;;;;;;7.67;6.87;;;9.90;99.90;;;;;;4949108;28;20439;-70
2022/11/28 16:41:38;;;;;;;8.67;6.50;;;9.90;99.90;;;;;;4949099;28;20478;-70
2022/11/28 16:44:12;;;;;;;10.53;6.70;;;9.80;99.90;;;;;;4952889;28;20758;-69
2022/11/28 16:46:59;;;;;;;8.63;6.73;;;9.80;99.90;;;;;;4948161;28;20426;-70
2022/11/28 16:49:32;;;;;;;8.20;6.40;;;9.80;99.90;;;;;;4947642;28;20486;-70
2022/11/28 16:52:19;;;;;;;9.23;7.07;;;9.80;99.90;;;;;;4950613;28;20452;-69
2022/11/28 16:54:55;;;;;;;7.80;7.00;;;9.80;99.90;;;;;;4947749;28;20444;-69
2022/11/28 16:57:21;;;;;;;9.60;7.83;;;9.70;99.90;;;;;;4948957;28;20571;-69
2022/11/28 16:59:48;;;;;;;12.40;8.23;;;9.70;99.90;;;;;;4952079;28;20508;-69
2022/11/28 17:02:19;;;;;;;8.40;7.53;;;9.70;99.90;;;;;;4949472;28;20193;-69
2022/11/28 17:04:46;;;;;;;9.40;7.90;;;9.70;99.90;;;;;;4951000;28;20545;-71
2022/11/28 17:07:15;;;;;;;9.53;7.70;;;9.70;99.90;;;;;;4949749;28;20488;-69
2022/11/28 17:09:41;;;;;;;10.07;8.10;;;9.60;99.90;;;;;;4950380;28;20799;-70
2022/11/28 17:12:26;;;;;;;9.50;8.00;;;9.60;99.90;;;;;;4954644;28;20465;-76
2022/11/28 17:14:52;;;;;;;10.77;8.00;;;9.60;99.90;;;;;;4952330;29;20797;-68
2022/11/28 17:17:19;;;;;;;10.97;7.63;;;9.60;99.90;;;;;;4954407;29;20801;-70
2022/11/28 17:19:44;;;;;;;12.67;8.17;;;9.60;99.90;;;;;;4948501;29;20442;-72
2022/11/28 17:22:16;;;;;;;9.07;8.17;;;9.60;99.90;;;;;;4949631;29;20500;-70
2022/11/28 17:24:43;;;;;;;10.43;8.50;;;9.70;99.90;;;;;;4957158;28;20171;-70
2022/11/28 17:27:13;;;;;;;11.00;9.17;;;9.60;99.90;;;;;;4957139;29;21108;-68
2022/11/28 17:29:39;;;;;;;13.53;9.20;;;9.70;99.90;;;;;;4957067;29;20422;-70
2022/11/28 17:32:04;;;;;;;10.63;8.43;;;9.70;99.90;;;;;;4956926;29;20418;-68
2022/11/28 17:34:32;;;;;;;9.97;8.33;;;9.70;99.90;;;;;;4953876;29;20182;-68